This is the latest recevied weather packets stored in our database for station/object YO6FNF-10. If no packets are shown the sender has not sent any weather packets the latest 10 day(s).
| Time | Temp. | Humidity | Pressure | Rain* | Wind** | Luminosity | Snow |
|---|---|---|---|---|---|---|---|
| 1777706082 | 11.11° C | 46% | 1024.8 hPa | - | - | - | - |
| 1777705181 | 11.11° C | 46% | 1024.6 hPa | - | - | - | - |
| 1777704281 | 11.11° C | 44% | 1024.3 hPa | - | - | - | - |
| 1777703381 | 12.78° C | 41% | 1024.3 hPa | - | - | - | - |
| 1777702481 | 12.22° C | 40% | 1024.4 hPa | - | - | - | - |
| 1777701580 | 10.56° C | 46% | 1024.5 hPa | - | - | - | - |
| 1777700680 | 10.56° C | 47% | 1024.6 hPa | - | - | - | - |
| 1777699780 | 8.89° C | 53% | 1024.7 hPa | - | - | - | - |
| 1777698880 | 7.78° C | 55% | 1024.5 hPa | - | - | - | - |
| 1777697980 | 7.22° C | 58% | 1024.4 hPa | - | - | - | - |
| 1777697080 | 6.67° C | 64% | 1024.5 hPa | - | - | - | - |
| 1777696179 | 6.11° C | 63% | 1024.5 hPa | - | - | - | - |
| 1777695279 | 6.11° C | 64% | 1024.5 hPa | - | - | - | - |
| 1777694379 | 5.56° C | 66% | 1024.5 hPa | - | - | - | - |
| 1777693479 | 5.56° C | 65% | 1024.4 hPa | - | - | - | - |
| 1777692578 | 5.56° C | 66% | 1024.4 hPa | - | - | - | - |
| 1777611580 | 0.56° C | 73% | 1027.1 hPa | - | - | - | - |
| 1777610680 | 0° C | 75% | 1027.3 hPa | - | - | - | - |
| 1777609780 | -0.56° C | 76% | 1027.2 hPa | - | - | - | - |
| 1777608880 | -0.56° C | 75% | 1027.2 hPa | - | - | - | - |
| 1777607979 | -1.11° C | 76% | 1027.2 hPa | - | - | - | - |
| 1777607079 | -1.11° C | 74% | 1027.1 hPa | - | - | - | - |
| 1777606178 | -1.67° C | 73% | 1027.1 hPa | - | - | - | - |
| 1777565687 | 7.78° C | 47% | 1025.7 hPa | - | - | - | - |
| 1777564787 | 7.78° C | 46% | 1025.6 hPa | - | - | - | - |
* Rain since midnight (hover to see other rain measurements)
** Current wind speed in m/s (hover to see current wind gust speed)